Time;durP1;ratioP1;P1;durP2;ratioP2;P2;SDS_P1;SDS_P2;PMS_P1;PMS_P2;Temp;Humidity;BMP_temperature;BMP_pressure;BME280_temperature;BME280_humidity;BME280_pressure;Samples;Min_cycle;Max_cycle;Signal;HPM_P1;HPM_P2
2023/02/19 00:01:16;;;;;;;12.23;2.22;;;21.80;27.70;;;;;;5097598;28;20072;-64
2023/02/19 00:03:47;;;;;;;9.75;2.05;;;21.80;27.70;;;;;;5100945;28;20119;-64
2023/02/19 00:06:13;;;;;;;13.95;2.50;;;21.80;28.00;;;;;;5099520;28;20064;-64
2023/02/19 00:08:40;;;;;;;13.88;2.40;;;21.80;28.50;;;;;;5096595;28;20069;-64
2023/02/19 00:11:12;;;;;;;14.88;2.35;;;21.70;28.70;;;;;;5099286;27;20599;-63
2023/02/19 00:13:41;;;;;;;14.63;2.50;;;21.70;28.60;;;;;;5097470;28;20406;-64
2023/02/19 00:16:13;;;;;;;21.63;2.83;;;21.50;28.70;;;;;;5100668;28;20076;-66
2023/02/19 00:18:40;;;;;;;14.98;2.08;;;21.40;29.40;;;;;;5101006;28;20138;-63
2023/02/19 00:21:07;;;;;;;12.63;1.90;;;21.40;29.10;;;;;;5097082;28;20099;-64
2023/02/19 00:23:34;;;;;;;18.95;2.88;;;21.30;29.50;;;;;;5098366;27;20129;-63
2023/02/19 00:26:11;;;;;;;20.35;2.40;;;21.20;29.50;;;;;;5101006;28;20077;-62
2023/02/19 00:28:38;;;;;;;12.82;2.33;;;21.10;29.80;;;;;;5096323;28;20111;-63
2023/02/19 00:31:14;;;;;;;15.15;2.85;;;21.10;30.00;;;;;;5104718;28;20068;-65
2023/02/19 00:33:40;;;;;;;185.52;8.85;;;21.20;30.50;;;;;;5098790;28;20095;-65
2023/02/19 00:36:07;;;;;;;14.02;2.17;;;21.00;30.60;;;;;;5097223;28;20071;-64
2023/02/19 00:38:38;;;;;;;18.88;2.47;;;21.00;30.50;;;;;;5096040;28;20129;-64
2023/02/19 00:41:17;;;;;;;18.52;2.55;;;20.90;31.00;;;;;;5095961;28;20084;-63
2023/02/19 00:43:51;;;;;;;16.83;2.55;;;20.80;30.90;;;;;;5097516;28;20092;-63
2023/02/19 00:46:23;;;;;;;14.65;1.90;;;20.70;30.20;;;;;;5096472;28;20722;-67
2023/02/19 00:48:51;;;;;;;11.70;1.98;;;20.70;30.00;;;;;;5099140;28;20069;-64
2023/02/19 00:51:18;;;;;;;14.68;2.22;;;20.60;30.00;;;;;;5101294;28;20485;-63
2023/02/19 00:53:44;;;;;;;35.08;16.20;;;20.50;30.90;;;;;;5100072;28;20121;-63
2023/02/19 00:56:11;;;;;;;28.48;13.32;;;20.30;31.30;;;;;;5098398;28;20096;-63
2023/02/19 00:58:38;;;;;;;32.45;13.38;;;20.20;32.00;;;;;;5094474;28;20156;-63
2023/02/19 01:01:05;;;;;;;32.47;14.70;;;20.10;32.80;;;;;;5097836;28;20096;-63
2023/02/19 01:03:33;;;;;;;29.00;12.88;;;19.90;32.60;;;;;;5101251;28;20186;-62
2023/02/19 01:05:59;;;;;;;33.38;13.43;;;19.80;32.80;;;;;;5097315;28;20073;-65
2023/02/19 01:08:26;;;;;;;33.22;12.32;;;19.80;33.50;;;;;;5096378;28;20106;-63
2023/02/19 01:10:53;;;;;;;33.00;13.55;;;19.50;33.00;;;;;;5095341;28;20132;-63
2023/02/19 01:13:19;;;;;;;29.30;11.57;;;19.50;33.70;;;;;;5094116;28;20117;-64
2023/02/19 01:15:45;;;;;;;29.00;11.35;;;19.30;33.10;;;;;;5092217;28;20068;-64
2023/02/19 01:18:12;;;;;;;30.00;11.88;;;19.20;32.90;;;;;;5094029;28;20091;-63
2023/02/19 01:20:41;;;;;;;17.55;4.45;;;19.00;32.80;;;;;;5103038;28;20079;-62
2023/02/19 01:23:07;;;;;;;19.95;4.88;;;19.00;33.20;;;;;;5107920;28;20539;-63
2023/02/19 01:25:34;;;;;;;15.85;3.95;;;18.90;33.50;;;;;;5096621;28;20076;-64
2023/02/19 01:28:00;;;;;;;22.45;3.22;;;18.80;34.30;;;;;;5103066;28;20103;-65
2023/02/19 01:30:27;;;;;;;18.10;4.00;;;18.70;33.90;;;;;;5099386;28;20080;-65
2023/02/19 01:32:53;;;;;;;20.67;4.05;;;18.70;34.40;;;;;;5105425;28;20082;-65
2023/02/19 01:35:19;;;;;;;21.13;4.28;;;18.50;34.60;;;;;;5095891;28;20077;-63
2023/02/19 01:37:46;;;;;;;19.05;5.03;;;18.30;35.00;;;;;;5095209;28;20069;-64
2023/02/19 01:40:12;;;;;;;16.95;4.60;;;18.20;35.50;;;;;;5096938;28;20122;-65
2023/02/19 01:42:43;;;;;;;16.58;3.65;;;18.00;36.30;;;;;;5097955;28;20069;-64
2023/02/19 01:45:17;;;;;;;22.65;5.00;;;18.00;37.00;;;;;;5096703;28;20095;-65
2023/02/19 01:47:45;;;;;;;22.77;6.60;;;17.90;38.00;;;;;;5092852;28;20545;-65
2023/02/19 01:50:12;;;;;;;29.33;8.13;;;17.90;37.90;;;;;;5099277;28;20084;-66
2023/02/19 01:52:38;;;;;;;34.72;8.05;;;17.80;38.00;;;;;;5093223;28;20110;-66
2023/02/19 01:55:09;;;;;;;38.65;7.97;;;17.70;38.20;;;;;;5102018;28;20129;-66
2023/02/19 01:57:41;;;;;;;26.48;8.15;;;17.60;38.50;;;;;;5098902;28;20099;-64
2023/02/19 02:00:11;;;;;;;31.67;8.95;;;17.40;38.70;;;;;;5095016;28;20536;-64
2023/02/19 02:02:40;;;;;;;38.13;10.25;;;17.30;38.90;;;;;;5096378;28;20143;-64
2023/02/19 02:05:10;;;;;;;34.40;11.07;;;17.20;39.40;;;;;;5096152;28;20145;-65
2023/02/19 02:10:33;;;;;;;36.53;12.93;;;17.10;39.60;;;;;;5057796;28;20084;-64
2023/02/19 02:12:59;;;;;;;38.45;12.98;;;16.90;40.20;;;;;;5098155;28;20549;-64
2023/02/19 02:15:35;;;;;;;38.28;12.57;;;16.80;41.00;;;;;;5098446;28;20083;-66
2023/02/19 02:18:07;;;;;;;38.22;10.43;;;16.70;41.30;;;;;;5093164;28;20084;-64
2023/02/19 02:20:37;;;;;;;42.25;10.15;;;16.60;41.80;;;;;;5095482;28;20440;-64
2023/02/19 02:23:12;;;;;;;41.13;9.25;;;16.60;42.00;;;;;;5094457;28;20157;-64
2023/02/19 02:25:55;;;;;;;31.55;8.68;;;16.50;41.70;;;;;;5100427;28;20114;-66
2023/02/19 02:28:59;;;;;;;54.40;9.45;;;16.40;41.80;;;;;;5101211;28;20091;-65
2023/02/19 02:31:43;;;;;;;39.35;9.82;;;16.30;42.80;;;;;;5096344;28;20079;-65
2023/02/19 02:34:18;;;;;;;57.20;11.77;;;16.10;43.10;;;;;;5095475;28;20075;-66
2023/02/19 02:36:48;;;;;;;37.63;11.45;;;16.00;43.70;;;;;;5089835;28;20120;-65
2023/02/19 02:39:21;;;;;;;46.88;11.57;;;16.00;44.10;;;;;;5093453;28;20089;-65
2023/02/19 02:47:41;;;;;;;38.40;10.68;;;15.80;45.20;;;;;;5064541;28;20430;-68
2023/02/19 02:50:30;;;;;;;50.55;12.23;;;15.80;45.80;;;;;;5096960;28;20087;-65
2023/02/19 02:55:50;;;;;;;46.28;11.60;;;15.60;46.20;;;;;;5096750;28;20099;-64
2023/02/19 02:58:18;;;;;;;70.25;12.52;;;15.60;46.10;;;;;;5099711;28;20099;-65
2023/02/19 03:03:38;;;;;;;55.90;13.75;;;15.50;47.10;;;;;;5090799;28;20142;-63
2023/02/19 03:06:06;;;;;;;64.50;14.55;;;15.40;46.80;;;;;;5094644;28;20085;-63
2023/02/19 03:09:11;;;;;;;52.28;16.33;;;15.40;47.10;;;;;;5101240;28;20126;-64
2023/02/19 03:20:21;;;;;;;71.38;25.70;;;15.00;47.50;;;;;;5096013;28;20095;-64
2023/02/19 03:22:50;;;;;;;62.70;25.92;;;14.90;47.70;;;;;;5099811;28;20498;-65
2023/02/19 03:28:10;;;;;;;70.88;24.80;;;14.90;48.30;;;;;;5102142;28;20144;-65
2023/02/19 03:30:43;;;;;;;65.80;22.45;;;14.70;48.30;;;;;;5103096;28;20617;-64
2023/02/19 03:33:17;;;;;;;65.85;22.45;;;14.70;48.60;;;;;;5102509;28;20072;-65
2023/02/19 03:36:02;;;;;;;56.78;20.92;;;14.60;48.50;;;;;;5103071;28;20145;-65
2023/02/19 03:38:54;;;;;;;84.40;21.17;;;14.60;48.80;;;;;;5095213;28;20123;-67
2023/02/19 03:41:42;;;;;;;66.88;20.60;;;14.50;48.40;;;;;;5098882;28;20608;-64
2023/02/19 03:44:29;;;;;;;62.72;19.05;;;14.50;49.70;;;;;;5098869;28;20182;-67
2023/02/19 03:46:57;;;;;;;80.18;20.67;;;14.40;49.40;;;;;;5100750;28;20092;-64
2023/02/19 03:49:47;;;;;;;73.90;19.95;;;14.30;49.20;;;;;;5096855;28;20093;-65
2023/02/19 03:52:26;;;;;;;72.20;19.45;;;14.30;49.50;;;;;;5099064;28;20077;-64
2023/02/19 03:55:12;;;;;;;67.55;21.25;;;14.30;49.50;;;;;;5098139;28;20198;-63
2023/02/19 03:58:25;;;;;;;69.90;20.25;;;14.30;49.80;;;;;;5099679;28;20445;-65
2023/02/19 04:00:59;;;;;;;75.95;22.30;;;14.40;49.40;;;;;;5056907;28;20565;-66
2023/02/19 04:03:50;;;;;;;94.10;28.05;;;14.10;49.70;;;;;;5060007;28;20135;-66
2023/02/19 04:06:30;;;;;;;125.55;35.47;;;14.10;49.70;;;;;;5055435;28;20094;-66
2023/02/19 04:09:01;;;;;;;117.40;38.38;;;14.10;50.00;;;;;;5057373;28;20073;-65
2023/02/19 04:11:29;;;;;;;133.20;37.85;;;14.10;49.50;;;;;;5057414;28;20127;-66
2023/02/19 04:14:06;;;;;;;140.82;40.03;;;14.00;49.40;;;;;;5059956;28;20081;-63
2023/02/19 04:16:37;;;;;;;143.27;40.85;;;14.00;50.50;;;;;;5061140;28;20537;-65
2023/02/19 04:19:08;;;;;;;122.10;40.83;;;14.00;51.20;;;;;;5054519;28;20156;-65
2023/02/19 04:21:36;;;;;;;138.98;44.72;;;14.00;51.30;;;;;;5054125;28;20152;-64
2023/02/19 04:24:10;;;;;;;145.73;42.63;;;13.90;50.80;;;;;;5055269;28;20136;-65
2023/02/19 04:26:37;;;;;;;155.20;48.47;;;13.90;51.20;;;;;;5056253;28;20092;-67
2023/02/19 04:29:03;;;;;;;;;;;13.80;51.10;;;;;;5059320;28;20581;-66
2023/02/19 04:31:34;;;;;;;140.48;47.95;;;13.70;51.30;;;;;;5058179;28;20015;-65
2023/02/19 04:34:02;;;;;;;137.93;45.92;;;13.80;52.00;;;;;;5057282;28;20599;-65
2023/02/19 04:36:30;;;;;;;149.48;47.50;;;13.70;52.00;;;;;;5047988;28;20092;-65
2023/02/19 04:38:57;;;;;;;145.50;47.13;;;13.70;52.40;;;;;;5090938;28;20498;-64
2023/02/19 04:41:23;;;;;;;154.65;48.75;;;13.70;52.80;;;;;;5094237;28;20549;-65
2023/02/19 04:43:49;;;;;;;177.57;53.90;;;13.60;52.30;;;;;;5095316;28;20130;-65
2023/02/19 04:46:16;;;;;;;;;;;13.50;52.20;;;;;;5097845;28;20141;-65
2023/02/19 04:48:42;;;;;;;135.95;50.65;;;13.40;52.40;;;;;;5102181;28;19956;-64
2023/02/19 04:51:08;;;;;;;;;;;13.40;52.90;;;;;;5099151;28;20073;-64
2023/02/19 04:53:36;;;;;;;169.25;51.17;;;13.40;53.40;;;;;;5097377;28;19962;-65
2023/02/19 04:56:10;;;;;;;163.63;53.50;;;13.30;53.30;;;;;;5099066;28;20069;-66
2023/02/19 04:58:37;;;;;;;164.43;54.15;;;13.20;53.20;;;;;;5097329;28;20559;-65
2023/02/19 05:01:04;;;;;;;157.10;51.63;;;13.20;52.90;;;;;;5095858;28;20132;-64
2023/02/19 05:03:31;;;;;;;164.82;53.20;;;13.20;53.50;;;;;;5105331;28;20096;-67
2023/02/19 05:06:00;;;;;;;160.05;51.80;;;13.20;54.10;;;;;;5098010;28;20437;-66
2023/02/19 05:08:27;;;;;;;158.35;50.92;;;13.20;54.00;;;;;;5097724;28;20064;-66
2023/02/19 05:10:56;;;;;;;;;;;13.10;54.30;;;;;;5102491;28;20067;-65
2023/02/19 05:13:22;;;;;;;151.05;49.78;;;13.00;54.10;;;;;;5090474;28;19961;-66
2023/02/19 05:15:58;;;;;;;;;;;13.00;54.70;;;;;;5101875;28;20084;-66
2023/02/19 05:18:25;;;;;;;150.75;47.20;;;12.90;54.50;;;;;;5099400;28;19993;-67
2023/02/19 05:20:52;;;;;;;168.98;51.60;;;12.90;54.90;;;;;;5094255;27;20525;-66
2023/02/19 05:23:19;;;;;;;149.20;49.45;;;12.90;54.70;;;;;;5097418;28;20072;-65
2023/02/19 05:25:46;;;;;;;162.88;49.08;;;12.70;54.30;;;;;;5095029;28;20504;-66
2023/02/19 05:28:16;;;;;;;157.32;47.40;;;12.80;54.70;;;;;;5095597;28;20069;-64
2023/02/19 05:30:48;;;;;;;147.60;46.40;;;12.80;55.20;;;;;;5093013;28;20080;-66
2023/02/19 05:33:16;;;;;;;154.25;49.17;;;12.80;55.20;;;;;;5102376;28;20064;-65
2023/02/19 05:35:55;;;;;;;163.13;51.22;;;12.70;55.10;;;;;;5098208;28;20151;-66
2023/02/19 05:38:22;;;;;;;173.23;49.78;;;12.70;54.50;;;;;;5098610;28;20509;-65
2023/02/19 05:40:50;;;;;;;166.73;49.28;;;12.70;55.20;;;;;;5092362;28;20081;-66
2023/02/19 05:43:17;;;;;;;150.35;50.80;;;12.70;55.70;;;;;;5092799;28;20072;-65
2023/02/19 05:45:43;;;;;;;139.93;48.97;;;12.60;55.70;;;;;;5094496;28;20513;-65
2023/02/19 05:48:10;;;;;;;;;;;12.70;56.00;;;;;;5099270;28;20087;-65
2023/02/19 05:50:37;;;;;;;158.37;49.37;;;12.60;55.70;;;;;;5096516;28;20062;-66
2023/02/19 05:53:04;;;;;;;165.32;49.33;;;12.50;55.70;;;;;;5095028;28;20088;-65
2023/02/19 05:55:35;;;;;;;156.02;50.83;;;12.60;55.80;;;;;;5098125;28;20172;-65
2023/02/19 05:58:01;;;;;;;141.30;51.38;;;12.50;55.80;;;;;;5107031;28;20463;-64
2023/02/19 06:00:28;;;;;;;152.38;51.58;;;12.50;55.70;;;;;;5097674;28;20549;-66
2023/02/19 06:02:54;;;;;;;;;;;12.40;55.90;;;;;;5101161;28;20114;-66
2023/02/19 06:05:20;;;;;;;135.70;52.22;;;12.40;55.90;;;;;;5097518;28;19988;-65
2023/02/19 06:07:49;;;;;;;142.40;51.05;;;12.40;56.50;;;;;;5101906;28;20081;-65
2023/02/19 06:10:15;;;;;;;164.40;51.35;;;12.40;56.50;;;;;;5100952;28;20430;-64
2023/02/19 06:12:42;;;;;;;161.55;51.80;;;12.30;57.10;;;;;;5096494;28;20574;-64
2023/02/19 06:15:08;;;;;;;171.45;54.28;;;12.30;56.70;;;;;;5099329;28;20231;-66
2023/02/19 06:17:35;;;;;;;177.85;51.60;;;12.20;56.20;;;;;;5099991;28;20071;-67
2023/02/19 06:20:01;;;;;;;;;;;12.20;57.00;;;;;;5099431;28;20068;-64
2023/02/19 06:22:28;;;;;;;169.00;53.00;;;12.20;57.10;;;;;;5097793;28;20008;-66
2023/02/19 06:24:54;;;;;;;139.43;50.70;;;12.20;57.00;;;;;;5097676;28;20148;-67
2023/02/19 06:27:20;;;;;;;;;;;12.20;57.50;;;;;;5102214;28;20160;-67
2023/02/19 06:29:46;;;;;;;155.35;49.42;;;12.20;56.60;;;;;;5024595;22;19994;-65
2023/02/19 06:32:12;;;;;;;;;;;12.20;56.40;;;;;;4994297;28;20098;-65
2023/02/19 06:34:39;;;;;;;163.82;51.25;;;12.20;56.40;;;;;;4991787;28;19959;-67
2023/02/19 06:37:05;;;;;;;;;;;12.30;56.20;;;;;;4994686;28;20564;-66
2023/02/19 06:39:31;;;;;;;138.38;49.55;;;12.20;55.90;;;;;;4993708;28;19969;-65
2023/02/19 06:41:57;;;;;;;;;;;12.20;56.40;;;;;;4996114;28;20443;-63
2023/02/19 06:44:24;;;;;;;136.65;46.65;;;12.20;56.40;;;;;;4994079;28;19988;-66
2023/02/19 06:46:53;;;;;;;144.10;41.17;;;12.20;56.20;;;;;;4986321;28;20217;-67
2023/02/19 06:49:20;;;;;;;106.50;37.25;;;12.10;55.70;;;;;;4980697;28;20070;-66
2023/02/19 06:51:47;;;;;;;106.03;32.17;;;12.10;55.70;;;;;;4975708;28;20079;-65
2023/02/19 06:54:13;;;;;;;105.95;31.30;;;12.10;55.50;;;;;;4974636;28;20107;-65
2023/02/19 06:56:40;;;;;;;;;;;12.20;56.00;;;;;;4978231;28;20083;-66
2023/02/19 06:59:17;;;;;;;97.18;31.40;;;12.10;55.40;;;;;;4977159;28;19959;-64
2023/02/19 07:01:44;;;;;;;;;;;12.00;55.70;;;;;;4975601;28;20073;-66
2023/02/19 07:04:11;;;;;;;106.33;33.57;;;12.00;56.10;;;;;;4971179;28;20069;-66
2023/02/19 07:06:39;;;;;;;107.07;31.85;;;12.00;56.00;;;;;;4974638;28;20094;-66
2023/02/19 07:09:07;;;;;;;113.47;33.42;;;11.90;56.00;;;;;;4972575;28;20076;-66
2023/02/19 07:11:36;;;;;;;108.25;30.80;;;12.00;56.00;;;;;;4971241;28;20406;-67
2023/02/19 07:14:06;;;;;;;90.53;25.60;;;11.90;56.00;;;;;;4972692;28;20173;-66
2023/02/19 07:16:33;;;;;;;72.25;20.38;;;12.00;56.60;;;;;;4973986;28;20499;-64
2023/02/19 07:19:00;;;;;;;75.45;19.60;;;11.80;56.10;;;;;;4973537;28;20129;-67
2023/02/19 07:21:27;;;;;;;62.45;17.00;;;11.80;56.20;;;;;;4975177;28;20150;-65
2023/02/19 07:23:54;;;;;;;53.63;17.13;;;11.70;56.00;;;;;;4973772;28;20145;-66
2023/02/19 07:26:21;;;;;;;78.13;19.50;;;11.70;56.20;;;;;;4973921;28;21577;-67
2023/02/19 07:28:49;;;;;;;66.55;18.58;;;11.70;56.60;;;;;;4973494;28;20142;-68
2023/02/19 07:31:18;;;;;;;73.10;17.13;;;11.60;56.80;;;;;;4974535;28;20564;-66
2023/02/19 07:33:46;;;;;;;61.47;18.02;;;11.60;57.00;;;;;;4972180;28;20083;-66
2023/02/19 07:36:13;;;;;;;74.20;21.25;;;11.60;57.10;;;;;;4974792;28;20130;-65
2023/02/19 07:38:40;;;;;;;80.10;20.73;;;11.50;57.50;;;;;;4978226;28;20144;-67
2023/02/19 07:41:06;;;;;;;;;;;11.30;57.30;;;;;;4980229;28;20099;-66
2023/02/19 07:43:35;;;;;;;62.40;19.75;;;11.30;57.60;;;;;;4980465;28;20411;-68
2023/02/19 07:46:12;;;;;;;63.05;18.98;;;11.30;58.30;;;;;;4977145;28;20134;-67
2023/02/19 07:48:40;;;;;;;78.30;21.63;;;11.30;58.70;;;;;;4972495;28;20532;-66
2023/02/19 07:51:10;;;;;;;68.70;20.38;;;11.30;58.50;;;;;;4976862;28;20110;-67
2023/02/19 07:53:36;;;;;;;69.05;19.75;;;11.20;58.30;;;;;;4975614;28;20177;-66
2023/02/19 07:56:06;;;;;;;90.28;21.45;;;11.30;59.20;;;;;;4978368;28;20075;-68
2023/02/19 07:58:33;;;;;;;69.20;19.88;;;11.30;59.30;;;;;;4980335;28;20126;-68
2023/02/19 08:01:14;;;;;;;61.20;17.88;;;11.10;58.40;;;;;;4978053;28;20071;-67
2023/02/19 08:03:41;;;;;;;76.43;20.33;;;11.10;58.50;;;;;;4982508;28;20606;-66
2023/02/19 08:06:09;;;;;;;85.25;21.65;;;11.10;59.20;;;;;;4975783;28;20102;-64
2023/02/19 08:08:37;;;;;;;72.70;18.55;;;11.10;59.20;;;;;;4981388;28;20500;-67
2023/02/19 08:13:51;;;;;;;75.93;18.95;;;11.20;59.10;;;;;;4980022;28;20118;-66
2023/02/19 08:16:19;;;;;;;82.38;19.15;;;11.30;59.60;;;;;;4977156;28;20078;-67
2023/02/19 08:18:47;;;;;;;65.07;19.88;;;11.30;59.90;;;;;;4982152;28;20564;-67
2023/02/19 08:21:17;;;;;;;83.80;20.85;;;11.30;59.90;;;;;;4979177;28;20548;-67
2023/02/19 08:23:45;;;;;;;81.20;21.58;;;11.30;59.00;;;;;;4979713;28;20525;-66
2023/02/19 08:26:11;;;;;;;82.50;19.75;;;11.30;59.10;;;;;;4981881;28;20075;-67
2023/02/19 08:28:38;;;;;;;68.93;19.52;;;11.20;59.00;;;;;;4982859;28;20110;-65
2023/02/19 08:31:06;;;;;;;63.70;18.05;;;11.20;59.10;;;;;;4980823;28;20078;-63
2023/02/19 08:33:32;;;;;;;71.40;18.30;;;11.20;60.00;;;;;;4980834;28;20117;-64
2023/02/19 08:36:06;;;;;;;;;;;11.20;59.40;;;;;;4986248;28;20533;-64
2023/02/19 08:38:34;;;;;;;70.97;19.30;;;11.20;59.60;;;;;;4977042;28;21463;-65
2023/02/19 08:41:06;;;;;;;82.43;18.85;;;11.20;60.00;;;;;;4979233;28;20158;-66
2023/02/19 08:43:32;;;;;;;80.28;20.40;;;11.20;59.60;;;;;;4979121;28;20098;-67
2023/02/19 08:45:59;;;;;;;80.53;18.80;;;11.10;59.30;;;;;;4979530;28;20076;-64
2023/02/19 08:48:25;;;;;;;;;;;11.00;59.40;;;;;;4995775;28;20083;-65
2023/02/19 08:51:02;;;;;;;78.03;19.42;;;11.00;59.00;;;;;;4980419;28;20045;-64
2023/02/19 08:53:30;;;;;;;80.28;20.17;;;11.00;59.20;;;;;;4977550;28;20070;-65
2023/02/19 08:55:57;;;;;;;88.32;20.98;;;10.90;58.80;;;;;;4978302;28;20088;-65
2023/02/19 08:58:25;;;;;;;;;;;11.00;59.20;;;;;;4980381;28;20072;-67
2023/02/19 09:00:52;;;;;;;85.75;20.25;;;11.00;59.40;;;;;;4981317;28;19966;-67
2023/02/19 09:03:18;;;;;;;75.72;20.95;;;11.00;59.70;;;;;;4981976;28;20134;-67
2023/02/19 09:05:45;;;;;;;;;;;11.00;59.80;;;;;;4982962;28;20652;-67
2023/02/19 09:08:12;;;;;;;81.00;23.27;;;11.00;59.70;;;;;;4981396;28;19981;-67
2023/02/19 09:10:39;;;;;;;85.88;23.83;;;11.00;59.80;;;;;;4979477;28;20103;-65
2023/02/19 09:13:05;;;;;;;76.57;24.20;;;11.00;59.80;;;;;;4979195;28;20151;-65
2023/02/19 09:15:32;;;;;;;74.65;22.40;;;11.00;59.00;;;;;;4979576;28;20512;-66
2023/02/19 09:17:59;;;;;;;74.25;21.02;;;10.90;58.50;;;;;;4982468;28;20079;-66
2023/02/19 09:20:25;;;;;;;67.40;19.77;;;10.90;58.00;;;;;;4984416;28;20106;-65
2023/02/19 09:22:57;;;;;;;59.85;17.15;;;10.90;58.40;;;;;;4980364;28;20090;-65
2023/02/19 09:25:24;;;;;;;64.38;16.42;;;10.80;57.00;;;;;;4982332;28;20091;-66
2023/02/19 09:27:54;;;;;;;66.95;13.98;;;10.70;55.30;;;;;;4980778;28;20068;-66
2023/02/19 09:30:21;;;;;;;56.45;11.95;;;10.70;54.10;;;;;;4981041;28;20134;-65
2023/02/19 09:32:47;;;;;;;;;;;10.70;52.60;;;;;;4980893;28;20067;-65
2023/02/19 09:35:13;;;;;;;67.88;10.88;;;10.80;52.50;;;;;;4977507;28;20331;-66
2023/02/19 09:37:39;;;;;;;;;;;10.70;52.80;;;;;;4978373;28;20090;-67
2023/02/19 09:40:06;;;;;;;47.38;10.07;;;10.70;52.30;;;;;;4978975;28;19958;-64
2023/02/19 09:42:32;;;;;;;52.03;9.40;;;10.80;52.50;;;;;;4982216;28;20086;-64
2023/02/19 09:45:00;;;;;;;50.25;8.98;;;10.80;52.70;;;;;;4980765;28;20083;-65
2023/02/19 09:47:32;;;;;;;43.35;9.55;;;10.90;52.30;;;;;;4975401;28;20095;-66
2023/02/19 09:50:04;;;;;;;47.80;9.18;;;10.90;53.30;;;;;;4980204;28;20091;-64
2023/02/19 09:52:55;;;;;;;53.20;11.27;;;10.80;52.60;;;;;;4977692;28;20083;-65
2023/02/19 09:55:35;;;;;;;43.13;10.35;;;10.80;51.80;;;;;;4977775;28;20087;-64
2023/02/19 09:58:23;;;;;;;54.15;9.27;;;10.60;51.10;;;;;;4979364;28;20133;-66
2023/02/19 10:00:51;;;;;;;60.47;9.32;;;10.70;51.70;;;;;;4967490;28;20174;-63
2023/02/19 10:03:37;;;;;;;36.45;8.38;;;10.70;51.60;;;;;;4979950;28;20091;-64
2023/02/19 10:06:19;;;;;;;43.30;8.63;;;10.70;51.70;;;;;;4980782;28;20097;-66
2023/02/19 10:08:47;;;;;;;40.78;7.80;;;10.70;52.00;;;;;;4975408;28;20563;-65
2023/02/19 10:11:14;;;;;;;43.78;8.70;;;10.70;52.20;;;;;;4975767;28;20071;-65
2023/02/19 10:13:42;;;;;;;32.90;7.70;;;10.70;52.20;;;;;;4977735;28;20102;-65
2023/02/19 10:16:24;;;;;;;40.47;7.78;;;10.70;52.60;;;;;;4979795;28;20154;-66
2023/02/19 10:18:50;;;;;;;46.70;8.23;;;10.70;52.80;;;;;;4976459;28;20074;-65
2023/02/19 10:21:20;;;;;;;40.13;6.68;;;10.60;51.50;;;;;;4977823;28;20075;-67
2023/02/19 10:23:51;;;;;;;29.60;7.75;;;10.60;51.10;;;;;;4979933;28;20090;-65
2023/02/19 10:26:19;;;;;;;44.40;6.53;;;10.60;51.90;;;;;;4979136;28;20441;-64
2023/02/19 10:28:45;;;;;;;42.30;6.38;;;10.60;52.00;;;;;;4982180;28;20103;-61
2023/02/19 10:31:18;;;;;;;;;;;10.60;51.10;;;;;;4972517;28;20164;-65
2023/02/19 10:33:53;;;;;;;30.67;5.93;;;11.00;50.30;;;;;;4973226;28;20056;-62
2023/02/19 10:36:32;;;;;;;33.90;5.13;;;11.40;50.20;;;;;;4973613;28;20153;-64
2023/02/19 10:39:00;;;;;;;29.20;5.75;;;11.80;49.00;;;;;;4970486;28;20105;-63
2023/02/19 10:41:27;;;;;;;32.38;5.78;;;11.80;49.50;;;;;;4972420;28;20072;-62
2023/02/19 10:44:05;;;;;;;32.47;5.25;;;11.90;48.80;;;;;;4972540;28;20097;-65
2023/02/19 10:46:41;;;;;;;32.83;5.20;;;12.00;48.70;;;;;;4966857;28;20087;-64
2023/02/19 10:49:34;;;;;;;28.15;6.43;;;11.90;47.70;;;;;;4973735;28;20529;-64
2023/02/19 10:52:24;;;;;;;36.35;6.38;;;11.90;48.30;;;;;;4971860;28;20083;-64
2023/02/19 10:54:55;;;;;;;31.58;6.90;;;11.90;48.60;;;;;;4971494;28;20181;-63
2023/02/19 10:57:31;;;;;;;33.80;6.43;;;12.00;48.70;;;;;;4972711;28;20094;-64
2023/02/19 11:00:14;;;;;;;28.35;6.22;;;11.90;48.40;;;;;;4970641;28;20173;-64
2023/02/19 11:02:42;;;;;;;23.75;6.10;;;11.80;49.20;;;;;;4972609;28;20115;-63
2023/02/19 11:05:13;;;;;;;41.35;7.07;;;11.80;49.30;;;;;;4971183;28;20150;-66
2023/02/19 11:07:48;;;;;;;32.65;6.68;;;11.70;49.10;;;;;;4971811;28;20071;-67
2023/02/19 11:10:32;;;;;;;35.72;6.75;;;11.70;49.50;;;;;;4973747;28;20079;-63
2023/02/19 11:13:01;;;;;;;31.60;6.57;;;11.70;49.50;;;;;;4969985;28;20064;-63
2023/02/19 11:15:35;;;;;;;40.17;6.75;;;11.70;49.70;;;;;;4973238;28;20195;-65
2023/02/19 11:18:14;;;;;;;36.10;8.32;;;11.60;49.40;;;;;;4973587;28;20078;-65
2023/02/19 11:21:27;;;;;;;39.55;8.57;;;11.60;48.80;;;;;;4972894;28;20071;-64
2023/02/19 11:23:55;;;;;;;25.83;7.43;;;11.50;50.10;;;;;;4952272;28;20103;-61
2023/02/19 11:26:24;;;;;;;49.25;8.73;;;11.40;50.10;;;;;;4972619;28;20171;-66
2023/02/19 11:28:59;;;;;;;37.38;7.85;;;11.30;49.90;;;;;;4973418;28;21744;-64
2023/02/19 11:31:31;;;;;;;40.78;7.47;;;11.20;50.40;;;;;;4974569;28;20436;-65
2023/02/19 11:34:24;;;;;;;40.90;8.18;;;11.20;50.20;;;;;;4972519;28;20075;-64
2023/02/19 11:37:19;;;;;;;29.88;6.90;;;11.20;50.20;;;;;;4971772;28;20272;-64
2023/02/19 11:39:50;;;;;;;41.10;7.57;;;11.10;49.70;;;;;;4974319;28;20459;-63
2023/02/19 11:42:43;;;;;;;32.10;6.32;;;11.20;50.30;;;;;;4977024;28;20102;-65
2023/02/19 11:45:12;;;;;;;30.75;6.47;;;11.10;50.40;;;;;;4975108;28;20158;-63
2023/02/19 11:48:06;;;;;;;28.70;6.75;;;11.10;49.90;;;;;;4978945;28;20093;-64
2023/02/19 11:50:47;;;;;;;38.58;6.63;;;11.00;50.30;;;;;;4975089;28;20095;-64
2023/02/19 11:53:26;;;;;;;26.42;5.88;;;10.90;50.90;;;;;;4975865;28;20071;-62
2023/02/19 11:56:10;;;;;;;22.65;6.32;;;10.90;51.20;;;;;;4974469;28;20444;-59
2023/02/19 11:58:55;;;;;;;31.17;6.43;;;10.80;51.60;;;;;;4976096;28;20579;-63
2023/02/19 12:02:03;;;;;;;31.40;6.63;;;10.70;51.30;;;;;;4975249;28;20215;-62
2023/02/19 12:05:09;;;;;;;38.37;7.00;;;10.70;51.20;;;;;;4977480;28;20094;-64
2023/02/19 12:07:51;;;;;;;37.15;6.85;;;10.70;51.80;;;;;;4975014;28;20429;-63
2023/02/19 12:10:34;;;;;;;30.92;7.15;;;10.70;51.80;;;;;;4975000;28;20087;-63
2023/02/19 12:13:10;;;;;;;41.85;7.53;;;10.80;51.30;;;;;;4972882;28;20465;-64
2023/02/19 12:15:42;;;;;;;33.42;7.70;;;10.70;51.20;;;;;;4975425;28;20563;-64
2023/02/19 12:18:30;;;;;;;37.15;7.22;;;10.70;51.80;;;;;;4975215;28;20071;-63
2023/02/19 12:21:19;;;;;;;;;;;10.70;52.00;;;;;;4973970;28;20078;-65
2023/02/19 12:23:51;;;;;;;42.25;8.77;;;10.50;52.50;;;;;;4954669;28;20433;-65
2023/02/19 12:26:52;;;;;;;54.15;10.35;;;10.60;52.20;;;;;;4977624;28;20478;-63
2023/02/19 12:29:32;;;;;;;48.92;9.32;;;10.60;51.50;;;;;;4942434;28;20141;-63
2023/02/19 12:32:31;;;;;;;46.10;9.20;;;10.60;52.30;;;;;;4970670;28;20437;-64
2023/02/19 12:35:11;;;;;;;38.67;8.07;;;10.50;52.40;;;;;;4950813;29;20088;-63
2023/02/19 12:37:48;;;;;;;43.45;8.70;;;10.40;52.10;;;;;;4951047;29;20123;-64
2023/02/19 12:40:23;;;;;;;44.28;8.13;;;10.30;52.60;;;;;;4951032;29;20079;-63
2023/02/19 12:43:21;;;;;;;39.65;8.57;;;10.30;53.10;;;;;;4950991;29;20186;-64
2023/02/19 12:46:06;;;;;;;42.63;8.75;;;10.30;53.10;;;;;;4950444;29;20111;-64
2023/02/19 12:48:43;;;;;;;37.50;7.60;;;10.20;53.70;;;;;;4947536;29;20160;-64
2023/02/19 12:51:25;;;;;;;42.25;8.20;;;10.10;54.20;;;;;;4950336;29;20150;-62
2023/02/19 12:54:13;;;;;;;33.25;7.40;;;10.10;54.50;;;;;;4948932;28;20084;-62
2023/02/19 12:56:48;;;;;;;37.45;8.45;;;10.00;54.30;;;;;;4934412;29;20489;-63
2023/02/19 12:59:28;;;;;;;33.83;7.93;;;10.00;53.90;;;;;;4950533;29;20575;-63
2023/02/19 13:02:11;;;;;;;29.92;7.93;;;10.00;53.50;;;;;;4950269;29;20075;-64
2023/02/19 13:04:50;;;;;;;47.35;8.75;;;9.90;53.70;;;;;;4949080;29;20206;-65
2023/02/19 13:07:45;;;;;;;43.03;9.40;;;9.80;54.50;;;;;;4949378;29;20123;-64
2023/02/19 13:10:49;;;;;;;37.42;9.95;;;9.70;53.70;;;;;;4950545;28;21636;-63
2023/02/19 13:13:48;;;;;;;35.53;7.90;;;9.70;53.90;;;;;;4989063;28;20809;-64
2023/02/19 13:16:17;;;;;;;32.50;9.55;;;9.50;53.90;;;;;;4947312;28;20083;-64
2023/02/19 13:18:46;;;;;;;36.05;8.88;;;9.60;54.20;;;;;;4974488;28;20087;-63
2023/02/19 13:24:08;;;;;;;39.47;9.50;;;9.60;54.50;;;;;;4976559;28;20118;-63
2023/02/19 13:27:09;;;;;;;37.25;9.60;;;9.70;55.00;;;;;;4974344;28;20072;-64
2023/02/19 13:29:53;;;;;;;37.30;8.32;;;9.60;54.90;;;;;;4974601;28;20119;-63
2023/02/19 13:32:20;;;;;;;40.97;8.90;;;9.60;54.70;;;;;;4975463;28;20099;-63
2023/02/19 13:35:15;;;;;;;;;;;9.60;54.10;;;;;;4972952;28;20529;-63
2023/02/19 13:37:43;;;;;;;29.27;8.25;;;9.60;54.10;;;;;;4973020;28;19962;-63